sensor_id;sensor_type;location;lat;lon;timestamp;temperature;humidity
35127;DHT22;21300;52.006;5.798;2023-05-14T00:01:46;17.80;85.20
35127;DHT22;21300;52.006;5.798;2023-05-14T00:04:12;17.80;85.10
35127;DHT22;21300;52.006;5.798;2023-05-14T00:06:37;17.70;85.10
35127;DHT22;21300;52.006;5.798;2023-05-14T00:09:03;17.70;85.40
35127;DHT22;21300;52.006;5.798;2023-05-14T00:11:29;17.70;85.40
35127;DHT22;21300;52.006;5.798;2023-05-14T00:13:54;17.70;85.50
35127;DHT22;21300;52.006;5.798;2023-05-14T00:16:20;17.60;85.50
35127;DHT22;21300;52.006;5.798;2023-05-14T00:18:45;17.60;85.70
35127;DHT22;21300;52.006;5.798;2023-05-14T00:21:11;17.60;85.80
35127;DHT22;21300;52.006;5.798;2023-05-14T00:23:37;17.50;85.90
35127;DHT22;21300;52.006;5.798;2023-05-14T00:26:03;17.50;85.90
35127;DHT22;21300;52.006;5.798;2023-05-14T00:28:28;17.50;86.00
35127;DHT22;21300;52.006;5.798;2023-05-14T00:30:54;17.40;86.00
35127;DHT22;21300;52.006;5.798;2023-05-14T00:33:21;17.40;85.70
35127;DHT22;21300;52.006;5.798;2023-05-14T00:35:47;17.40;85.90
35127;DHT22;21300;52.006;5.798;2023-05-14T00:38:13;17.40;86.20
35127;DHT22;21300;52.006;5.798;2023-05-14T00:40:42;17.40;86.40
35127;DHT22;21300;52.006;5.798;2023-05-14T00:43:10;17.30;86.50
35127;DHT22;21300;52.006;5.798;2023-05-14T00:45:37;17.30;86.50
35127;DHT22;21300;52.006;5.798;2023-05-14T00:48:02;17.30;86.70
35127;DHT22;21300;52.006;5.798;2023-05-14T00:50:28;17.20;86.70
35127;DHT22;21300;52.006;5.798;2023-05-14T00:52:54;17.20;86.40
35127;DHT22;21300;52.006;5.798;2023-05-14T00:55:20;17.20;86.80
35127;DHT22;21300;52.006;5.798;2023-05-14T00:57:47;17.20;86.90
35127;DHT22;21300;52.006;5.798;2023-05-14T01:00:13;17.20;87.00
35127;DHT22;21300;52.006;5.798;2023-05-14T01:02:39;17.10;87.10
35127;DHT22;21300;52.006;5.798;2023-05-14T01:05:05;17.10;87.10
35127;DHT22;21300;52.006;5.798;2023-05-14T01:10:30;17.00;87.20
35127;DHT22;21300;52.006;5.798;2023-05-14T01:13:12;17.00;87.30
35127;DHT22;21300;52.006;5.798;2023-05-14T01:15:41;17.00;87.50
35127;DHT22;21300;52.006;5.798;2023-05-14T01:18:10;17.00;87.60
35127;DHT22;21300;52.006;5.798;2023-05-14T01:20:37;17.00;87.50
35127;DHT22;21300;52.006;5.798;2023-05-14T01:23:03;16.90;87.50
35127;DHT22;21300;52.006;5.798;2023-05-14T01:25:29;16.90;87.60
35127;DHT22;21300;52.006;5.798;2023-05-14T01:28:02;16.90;87.80
35127;DHT22;21300;52.006;5.798;2023-05-14T01:30:36;16.90;87.80
35127;DHT22;21300;52.006;5.798;2023-05-14T01:33:10;16.90;87.80
35127;DHT22;21300;52.006;5.798;2023-05-14T01:35:37;16.80;87.80
35127;DHT22;21300;52.006;5.798;2023-05-14T01:38:06;16.80;87.90
35127;DHT22;21300;52.006;5.798;2023-05-14T01:40:35;16.80;88.00
35127;DHT22;21300;52.006;5.798;2023-05-14T01:43:01;16.70;88.20
35127;DHT22;21300;52.006;5.798;2023-05-14T01:45:29;16.70;88.20
35127;DHT22;21300;52.006;5.798;2023-05-14T01:47:55;16.70;88.20
35127;DHT22;21300;52.006;5.798;2023-05-14T01:50:21;16.70;88.30
35127;DHT22;21300;52.006;5.798;2023-05-14T01:52:46;16.60;88.30
35127;DHT22;21300;52.006;5.798;2023-05-14T01:55:17;16.70;88.40
35127;DHT22;21300;52.006;5.798;2023-05-14T01:57:43;16.60;88.30
35127;DHT22;21300;52.006;5.798;2023-05-14T02:00:09;16.60;88.40
35127;DHT22;21300;52.006;5.798;2023-05-14T02:02:35;16.60;88.50
35127;DHT22;21300;52.006;5.798;2023-05-14T02:05:00;16.60;88.60
35127;DHT22;21300;52.006;5.798;2023-05-14T02:07:26;16.50;88.50
35127;DHT22;21300;52.006;5.798;2023-05-14T02:09:52;16.50;88.60
35127;DHT22;21300;52.006;5.798;2023-05-14T02:12:17;16.50;88.60
35127;DHT22;21300;52.006;5.798;2023-05-14T02:14:43;16.50;88.90
35127;DHT22;21300;52.006;5.798;2023-05-14T02:17:08;16.40;88.90
35127;DHT22;21300;52.006;5.798;2023-05-14T02:19:34;16.40;88.90
35127;DHT22;21300;52.006;5.798;2023-05-14T02:21:59;16.40;88.90
35127;DHT22;21300;52.006;5.798;2023-05-14T02:24:28;16.40;89.00
35127;DHT22;21300;52.006;5.798;2023-05-14T02:26:53;16.30;89.10
35127;DHT22;21300;52.006;5.798;2023-05-14T02:29:19;16.30;89.10
35127;DHT22;21300;52.006;5.798;2023-05-14T02:31:44;16.30;89.10
35127;DHT22;21300;52.006;5.798;2023-05-14T02:34:10;16.20;89.20
35127;DHT22;21300;52.006;5.798;2023-05-14T02:36:35;16.30;89.80
35127;DHT22;21300;52.006;5.798;2023-05-14T02:39:01;16.20;89.30
35127;DHT22;21300;52.006;5.798;2023-05-14T02:41:27;16.20;89.50
35127;DHT22;21300;52.006;5.798;2023-05-14T02:43:53;16.20;89.50
35127;DHT22;21300;52.006;5.798;2023-05-14T02:46:18;16.20;89.60
35127;DHT22;21300;52.006;5.798;2023-05-14T02:48:44;16.10;89.60
35127;DHT22;21300;52.006;5.798;2023-05-14T02:51:11;16.10;89.70
35127;DHT22;21300;52.006;5.798;2023-05-14T02:53:36;16.00;89.60
35127;DHT22;21300;52.006;5.798;2023-05-14T02:56:02;16.10;89.70
35127;DHT22;21300;52.006;5.798;2023-05-14T02:58:28;16.00;89.80
35127;DHT22;21300;52.006;5.798;2023-05-14T03:00:53;16.00;89.70
35127;DHT22;21300;52.006;5.798;2023-05-14T03:03:19;16.00;89.80
35127;DHT22;21300;52.006;5.798;2023-05-14T03:05:45;16.00;89.90
35127;DHT22;21300;52.006;5.798;2023-05-14T03:08:11;15.90;89.90
35127;DHT22;21300;52.006;5.798;2023-05-14T03:10:36;15.90;89.90
35127;DHT22;21300;52.006;5.798;2023-05-14T03:13:02;15.90;90.00
35127;DHT22;21300;52.006;5.798;2023-05-14T03:15:27;15.90;90.00
35127;DHT22;21300;52.006;5.798;2023-05-14T03:17:53;15.80;90.00
35127;DHT22;21300;52.006;5.798;2023-05-14T03:20:19;15.80;90.00
35127;DHT22;21300;52.006;5.798;2023-05-14T03:22:45;15.80;90.00
35127;DHT22;21300;52.006;5.798;2023-05-14T03:25:10;15.80;90.00
35127;DHT22;21300;52.006;5.798;2023-05-14T03:27:36;15.70;90.00
35127;DHT22;21300;52.006;5.798;2023-05-14T03:30:02;15.70;90.10
35127;DHT22;21300;52.006;5.798;2023-05-14T03:32:27;15.70;90.10
35127;DHT22;21300;52.006;5.798;2023-05-14T03:34:53;15.60;90.10
35127;DHT22;21300;52.006;5.798;2023-05-14T03:37:20;15.70;90.10
35127;DHT22;21300;52.006;5.798;2023-05-14T03:39:45;15.60;90.10
35127;DHT22;21300;52.006;5.798;2023-05-14T03:42:11;15.60;90.20
35127;DHT22;21300;52.006;5.798;2023-05-14T03:44:36;15.60;90.20
35127;DHT22;21300;52.006;5.798;2023-05-14T03:47:02;15.50;90.20
35127;DHT22;21300;52.006;5.798;2023-05-14T03:49:27;15.50;90.20
35127;DHT22;21300;52.006;5.798;2023-05-14T03:51:53;15.50;90.20
35127;DHT22;21300;52.006;5.798;2023-05-14T03:54:18;15.50;90.20
35127;DHT22;21300;52.006;5.798;2023-05-14T03:56:44;15.40;90.20
35127;DHT22;21300;52.006;5.798;2023-05-14T03:59:10;15.50;90.20
35127;DHT22;21300;52.006;5.798;2023-05-14T04:01:35;15.40;90.20
35127;DHT22;21300;52.006;5.798;2023-05-14T04:04:01;15.30;90.20
35127;DHT22;21300;52.006;5.798;2023-05-14T04:06:26;15.40;90.30
35127;DHT22;21300;52.006;5.798;2023-05-14T04:08:52;15.30;90.30
35127;DHT22;21300;52.006;5.798;2023-05-14T04:11:18;15.30;90.30
35127;DHT22;21300;52.006;5.798;2023-05-14T04:13:43;15.30;90.30
35127;DHT22;21300;52.006;5.798;2023-05-14T04:16:09;15.30;90.30
35127;DHT22;21300;52.006;5.798;2023-05-14T04:18:34;15.30;90.30
35127;DHT22;21300;52.006;5.798;2023-05-14T04:21:01;15.30;90.30
35127;DHT22;21300;52.006;5.798;2023-05-14T04:23:26;15.20;90.30
35127;DHT22;21300;52.006;5.798;2023-05-14T04:25:52;15.20;90.30
35127;DHT22;21300;52.006;5.798;2023-05-14T04:28:18;15.20;90.30
35127;DHT22;21300;52.006;5.798;2023-05-14T04:30:43;15.20;90.30
35127;DHT22;21300;52.006;5.798;2023-05-14T04:33:10;15.10;90.30
35127;DHT22;21300;52.006;5.798;2023-05-14T04:35:35;15.20;90.40
35127;DHT22;21300;52.006;5.798;2023-05-14T04:38:01;15.10;90.40
35127;DHT22;21300;52.006;5.798;2023-05-14T04:40:27;15.10;90.40
35127;DHT22;21300;52.006;5.798;2023-05-14T04:42:52;15.10;90.40
35127;DHT22;21300;52.006;5.798;2023-05-14T04:45:18;15.10;90.40
35127;DHT22;21300;52.006;5.798;2023-05-14T04:47:45;15.10;90.40
35127;DHT22;21300;52.006;5.798;2023-05-14T04:50:11;15.10;90.50
35127;DHT22;21300;52.006;5.798;2023-05-14T04:52:37;15.10;90.40
35127;DHT22;21300;52.006;5.798;2023-05-14T04:55:03;15.10;90.30
35127;DHT22;21300;52.006;5.798;2023-05-14T04:57:29;15.10;90.30
35127;DHT22;21300;52.006;5.798;2023-05-14T04:59:54;15.00;90.40
35127;DHT22;21300;52.006;5.798;2023-05-14T05:02:20;15.00;90.40
35127;DHT22;21300;52.006;5.798;2023-05-14T05:04:46;15.00;90.40
35127;DHT22;21300;52.006;5.798;2023-05-14T05:07:11;15.00;90.30
35127;DHT22;21300;52.006;5.798;2023-05-14T05:09:37;15.00;90.30
35127;DHT22;21300;52.006;5.798;2023-05-14T05:12:03;15.00;90.30
35127;DHT22;21300;52.006;5.798;2023-05-14T05:14:29;15.10;90.30
35127;DHT22;21300;52.006;5.798;2023-05-14T05:16:55;15.10;90.30
35127;DHT22;21300;52.006;5.798;2023-05-14T05:19:20;15.10;90.30
35127;DHT22;21300;52.006;5.798;2023-05-14T05:21:46;15.10;90.20
35127;DHT22;21300;52.006;5.798;2023-05-14T05:24:11;15.10;90.20
35127;DHT22;21300;52.006;5.798;2023-05-14T05:26:37;15.10;90.10
35127;DHT22;21300;52.006;5.798;2023-05-14T05:29:04;15.10;90.20
35127;DHT22;21300;52.006;5.798;2023-05-14T05:31:30;15.10;90.10
35127;DHT22;21300;52.006;5.798;2023-05-14T05:33:57;15.10;90.10
35127;DHT22;21300;52.006;5.798;2023-05-14T05:36:23;15.20;90.20
35127;DHT22;21300;52.006;5.798;2023-05-14T05:38:49;15.10;90.10
35127;DHT22;21300;52.006;5.798;2023-05-14T05:41:15;15.20;90.10
35127;DHT22;21300;52.006;5.798;2023-05-14T05:43:41;15.20;90.10
35127;DHT22;21300;52.006;5.798;2023-05-14T05:46:06;15.20;90.10
35127;DHT22;21300;52.006;5.798;2023-05-14T05:48:32;15.20;90.10
35127;DHT22;21300;52.006;5.798;2023-05-14T05:50:57;15.20;90.00
35127;DHT22;21300;52.006;5.798;2023-05-14T05:53:23;15.20;89.90
35127;DHT22;21300;52.006;5.798;2023-05-14T05:55:48;15.20;90.00
35127;DHT22;21300;52.006;5.798;2023-05-14T05:58:16;15.20;89.80
35127;DHT22;21300;52.006;5.798;2023-05-14T06:00:42;15.30;89.80
35127;DHT22;21300;52.006;5.798;2023-05-14T06:03:08;15.30;89.80
35127;DHT22;21300;52.006;5.798;2023-05-14T06:05:33;15.30;89.70
35127;DHT22;21300;52.006;5.798;2023-05-14T06:07:59;15.30;89.50
35127;DHT22;21300;52.006;5.798;2023-05-14T06:10:24;15.30;89.40
35127;DHT22;21300;52.006;5.798;2023-05-14T06:12:50;15.40;89.30
35127;DHT22;21300;52.006;5.798;2023-05-14T06:15:15;15.40;89.30
35127;DHT22;21300;52.006;5.798;2023-05-14T06:17:41;15.50;89.30
35127;DHT22;21300;52.006;5.798;2023-05-14T06:20:07;15.50;89.30
35127;DHT22;21300;52.006;5.798;2023-05-14T06:22:33;15.50;89.50
35127;DHT22;21300;52.006;5.798;2023-05-14T06:24:59;15.50;89.30
35127;DHT22;21300;52.006;5.798;2023-05-14T06:27:24;15.60;89.30
35127;DHT22;21300;52.006;5.798;2023-05-14T06:29:50;15.60;89.30
35127;DHT22;21300;52.006;5.798;2023-05-14T06:32:15;15.60;89.10
35127;DHT22;21300;52.006;5.798;2023-05-14T06:34:42;15.70;89.00
35127;DHT22;21300;52.006;5.798;2023-05-14T06:37:08;15.70;88.90
35127;DHT22;21300;52.006;5.798;2023-05-14T06:39:34;15.70;88.70
35127;DHT22;21300;52.006;5.798;2023-05-14T06:42:00;15.80;88.80
35127;DHT22;21300;52.006;5.798;2023-05-14T06:44:25;15.80;88.70
35127;DHT22;21300;52.006;5.798;2023-05-14T06:46:51;15.90;88.90
35127;DHT22;21300;52.006;5.798;2023-05-14T06:49:17;15.90;88.60
35127;DHT22;21300;52.006;5.798;2023-05-14T06:51:42;15.90;88.60
35127;DHT22;21300;52.006;5.798;2023-05-14T06:54:08;15.90;88.60
35127;DHT22;21300;52.006;5.798;2023-05-14T06:56:33;16.00;88.60
35127;DHT22;21300;52.006;5.798;2023-05-14T06:58:59;16.00;88.60
35127;DHT22;21300;52.006;5.798;2023-05-14T07:01:24;16.00;88.50
35127;DHT22;21300;52.006;5.798;2023-05-14T07:03:50;16.00;88.50
35127;DHT22;21300;52.006;5.798;2023-05-14T07:06:16;16.10;88.40
35127;DHT22;21300;52.006;5.798;2023-05-14T07:08:42;16.10;88.30
35127;DHT22;21300;52.006;5.798;2023-05-14T07:11:10;16.10;88.30
35127;DHT22;21300;52.006;5.798;2023-05-14T07:13:36;16.20;88.30
35127;DHT22;21300;52.006;5.798;2023-05-14T07:16:01;16.20;88.40
35127;DHT22;21300;52.006;5.798;2023-05-14T07:18:27;16.20;88.30
35127;DHT22;21300;52.006;5.798;2023-05-14T07:20:53;16.30;88.30
35127;DHT22;21300;52.006;5.798;2023-05-14T07:23:18;16.30;88.20
35127;DHT22;21300;52.006;5.798;2023-05-14T07:28:28;16.40;88.20
35127;DHT22;21300;52.006;5.798;2023-05-14T07:30:53;16.40;88.20
35127;DHT22;21300;52.006;5.798;2023-05-14T07:33:19;16.50;88.20
35127;DHT22;21300;52.006;5.798;2023-05-14T07:35:45;16.50;88.20
35127;DHT22;21300;52.006;5.798;2023-05-14T07:38:10;16.50;88.20
35127;DHT22;21300;52.006;5.798;2023-05-14T07:40:36;16.60;88.20
35127;DHT22;21300;52.006;5.798;2023-05-14T07:43:02;16.60;88.10
35127;DHT22;21300;52.006;5.798;2023-05-14T07:45:27;16.60;88.00
35127;DHT22;21300;52.006;5.798;2023-05-14T07:47:53;16.70;88.10
35127;DHT22;21300;52.006;5.798;2023-05-14T07:50:18;16.70;87.90
35127;DHT22;21300;52.006;5.798;2023-05-14T07:52:44;16.80;87.90
35127;DHT22;21300;52.006;5.798;2023-05-14T07:55:11;16.80;87.60
35127;DHT22;21300;52.006;5.798;2023-05-14T07:57:37;16.80;87.50
35127;DHT22;21300;52.006;5.798;2023-05-14T08:00:03;16.90;87.40
35127;DHT22;21300;52.006;5.798;2023-05-14T08:02:32;17.00;87.40
35127;DHT22;21300;52.006;5.798;2023-05-14T08:04:58;17.00;87.40
35127;DHT22;21300;52.006;5.798;2023-05-14T08:07:23;17.10;87.40
35127;DHT22;21300;52.006;5.798;2023-05-14T08:09:49;17.10;87.30
35127;DHT22;21300;52.006;5.798;2023-05-14T08:12:15;17.20;87.20
35127;DHT22;21300;52.006;5.798;2023-05-14T08:14:41;17.20;87.00
35127;DHT22;21300;52.006;5.798;2023-05-14T08:17:06;17.20;87.10
35127;DHT22;21300;52.006;5.798;2023-05-14T08:19:32;17.30;86.90
35127;DHT22;21300;52.006;5.798;2023-05-14T08:21:57;17.30;87.10
35127;DHT22;21300;52.006;5.798;2023-05-14T08:24:23;17.40;87.00
35127;DHT22;21300;52.006;5.798;2023-05-14T08:26:49;17.40;87.00
35127;DHT22;21300;52.006;5.798;2023-05-14T08:29:14;17.40;87.10
35127;DHT22;21300;52.006;5.798;2023-05-14T08:31:40;17.50;86.90
35127;DHT22;21300;52.006;5.798;2023-05-14T08:34:05;17.50;86.90
35127;DHT22;21300;52.006;5.798;2023-05-14T08:36:31;17.60;87.00
35127;DHT22;21300;52.006;5.798;2023-05-14T08:38:57;17.60;87.10
35127;DHT22;21300;52.006;5.798;2023-05-14T08:41:22;17.70;87.10
35127;DHT22;21300;52.006;5.798;2023-05-14T08:44:06;17.70;87.20
35127;DHT22;21300;52.006;5.798;2023-05-14T08:46:35;17.70;87.20
35127;DHT22;21300;52.006;5.798;2023-05-14T08:49:11;17.80;87.30
35127;DHT22;21300;52.006;5.798;2023-05-14T08:51:39;17.80;87.30
35127;DHT22;21300;52.006;5.798;2023-05-14T08:54:05;17.80;87.50
35127;DHT22;21300;52.006;5.798;2023-05-14T08:56:34;17.90;87.60
35127;DHT22;21300;52.006;5.798;2023-05-14T08:59:01;17.90;87.60
35127;DHT22;21300;52.006;5.798;2023-05-14T09:01:27;18.00;87.50
35127;DHT22;21300;52.006;5.798;2023-05-14T09:03:54;18.00;87.70
35127;DHT22;21300;52.006;5.798;2023-05-14T09:06:20;18.10;87.70
35127;DHT22;21300;52.006;5.798;2023-05-14T09:08:46;18.10;87.70
35127;DHT22;21300;52.006;5.798;2023-05-14T09:11:12;18.10;87.80
35127;DHT22;21300;52.006;5.798;2023-05-14T09:13:38;18.20;87.70
35127;DHT22;21300;52.006;5.798;2023-05-14T09:16:04;18.20;87.70
35127;DHT22;21300;52.006;5.798;2023-05-14T09:18:30;18.20;87.80
35127;DHT22;21300;52.006;5.798;2023-05-14T09:20:56;18.30;87.90
35127;DHT22;21300;52.006;5.798;2023-05-14T09:23:25;18.30;87.80
35127;DHT22;21300;52.006;5.798;2023-05-14T09:25:51;18.40;87.90
35127;DHT22;21300;52.006;5.798;2023-05-14T09:28:17;18.40;88.00
35127;DHT22;21300;52.006;5.798;2023-05-14T09:30:49;18.50;88.10
35127;DHT22;21300;52.006;5.798;2023-05-14T09:33:25;18.50;88.10
35127;DHT22;21300;52.006;5.798;2023-05-14T09:35:56;18.50;88.00
35127;DHT22;21300;52.006;5.798;2023-05-14T09:38:27;18.60;87.90
35127;DHT22;21300;52.006;5.798;2023-05-14T09:40:53;18.60;87.60
35127;DHT22;21300;52.006;5.798;2023-05-14T09:43:18;18.70;87.70
35127;DHT22;21300;52.006;5.798;2023-05-14T09:45:44;18.70;87.80
35127;DHT22;21300;52.006;5.798;2023-05-14T09:48:10;18.70;87.80
35127;DHT22;21300;52.006;5.798;2023-05-14T09:50:41;18.80;87.90
35127;DHT22;21300;52.006;5.798;2023-05-14T09:53:07;18.90;88.20
35127;DHT22;21300;52.006;5.798;2023-05-14T09:55:37;18.80;88.10
35127;DHT22;21300;52.006;5.798;2023-05-14T09:58:04;18.90;88.10
35127;DHT22;21300;52.006;5.798;2023-05-14T10:00:31;18.90;88.20
35127;DHT22;21300;52.006;5.798;2023-05-14T10:02:57;19.00;88.40
35127;DHT22;21300;52.006;5.798;2023-05-14T10:05:23;19.00;87.90
35127;DHT22;21300;52.006;5.798;2023-05-14T10:07:52;19.10;88.30
35127;DHT22;21300;52.006;5.798;2023-05-14T10:10:19;19.10;88.50
35127;DHT22;21300;52.006;5.798;2023-05-14T10:12:50;19.20;88.50
35127;DHT22;21300;52.006;5.798;2023-05-14T10:15:20;19.30;86.70
35127;DHT22;21300;52.006;5.798;2023-05-14T10:17:54;19.40;86.40
35127;DHT22;21300;52.006;5.798;2023-05-14T10:20:21;19.50;86.80
35127;DHT22;21300;52.006;5.798;2023-05-14T10:22:47;19.50;86.40
35127;DHT22;21300;52.006;5.798;2023-05-14T10:25:32;19.60;86.00
35127;DHT22;21300;52.006;5.798;2023-05-14T10:27:58;19.60;85.90
35127;DHT22;21300;52.006;5.798;2023-05-14T10:30:25;19.60;86.80
35127;DHT22;21300;52.006;5.798;2023-05-14T10:33:13;19.60;87.10
35127;DHT22;21300;52.006;5.798;2023-05-14T10:36:02;19.60;87.10
35127;DHT22;21300;52.006;5.798;2023-05-14T10:38:33;19.70;87.30
35127;DHT22;21300;52.006;5.798;2023-05-14T10:41:01;19.80;87.80
35127;DHT22;21300;52.006;5.798;2023-05-14T10:43:28;19.80;87.50
35127;DHT22;21300;52.006;5.798;2023-05-14T10:45:56;19.80;87.50
35127;DHT22;21300;52.006;5.798;2023-05-14T10:48:22;19.90;86.60
35127;DHT22;21300;52.006;5.798;2023-05-14T10:50:50;20.00;86.20
35127;DHT22;21300;52.006;5.798;2023-05-14T10:53:16;20.00;85.70
35127;DHT22;21300;52.006;5.798;2023-05-14T10:55:48;20.10;86.30
35127;DHT22;21300;52.006;5.798;2023-05-14T10:58:14;20.10;86.30
35127;DHT22;21300;52.006;5.798;2023-05-14T11:00:40;20.10;86.40
35127;DHT22;21300;52.006;5.798;2023-05-14T11:03:06;20.20;85.90
35127;DHT22;21300;52.006;5.798;2023-05-14T11:05:32;20.20;86.50
35127;DHT22;21300;52.006;5.798;2023-05-14T11:08:03;20.20;86.80
35127;DHT22;21300;52.006;5.798;2023-05-14T11:10:31;20.30;87.10
35127;DHT22;21300;52.006;5.798;2023-05-14T11:12:56;20.30;86.80
35127;DHT22;21300;52.006;5.798;2023-05-14T11:15:24;20.40;86.50
35127;DHT22;21300;52.006;5.798;2023-05-14T11:17:51;20.40;86.60
35127;DHT22;21300;52.006;5.798;2023-05-14T11:20:18;20.40;86.80
35127;DHT22;21300;52.006;5.798;2023-05-14T11:22:45;20.40;86.00
35127;DHT22;21300;52.006;5.798;2023-05-14T11:25:11;20.40;86.20
35127;DHT22;21300;52.006;5.798;2023-05-14T11:27:43;20.50;86.50
35127;DHT22;21300;52.006;5.798;2023-05-14T11:30:17;20.50;86.30
35127;DHT22;21300;52.006;5.798;2023-05-14T11:32:47;20.50;86.50
35127;DHT22;21300;52.006;5.798;2023-05-14T11:35:13;20.60;86.70
35127;DHT22;21300;52.006;5.798;2023-05-14T11:37:40;20.60;86.70
35127;DHT22;21300;52.006;5.798;2023-05-14T11:40:08;20.60;86.80
35127;DHT22;21300;52.006;5.798;2023-05-14T11:42:35;20.60;86.70
35127;DHT22;21300;52.006;5.798;2023-05-14T11:45:01;20.70;86.90
35127;DHT22;21300;52.006;5.798;2023-05-14T11:47:28;20.70;86.20
35127;DHT22;21300;52.006;5.798;2023-05-14T11:49:54;20.70;86.30
35127;DHT22;21300;52.006;5.798;2023-05-14T11:52:19;20.70;85.60
35127;DHT22;21300;52.006;5.798;2023-05-14T11:54:46;20.70;85.80
35127;DHT22;21300;52.006;5.798;2023-05-14T11:57:21;20.80;85.80
35127;DHT22;21300;52.006;5.798;2023-05-14T11:59:54;20.80;86.00
35127;DHT22;21300;52.006;5.798;2023-05-14T12:02:25;20.80;85.80
35127;DHT22;21300;52.006;5.798;2023-05-14T12:04:52;20.90;86.00
35127;DHT22;21300;52.006;5.798;2023-05-14T12:07:18;20.90;85.80
35127;DHT22;21300;52.006;5.798;2023-05-14T12:09:48;20.90;85.90
35127;DHT22;21300;52.006;5.798;2023-05-14T12:12:16;20.90;86.30
35127;DHT22;21300;52.006;5.798;2023-05-14T12:14:43;21.00;85.90
35127;DHT22;21300;52.006;5.798;2023-05-14T12:17:20;21.00;86.00
35127;DHT22;21300;52.006;5.798;2023-05-14T12:19:52;21.00;86.20
35127;DHT22;21300;52.006;5.798;2023-05-14T12:22:22;21.10;85.80
35127;DHT22;21300;52.006;5.798;2023-05-14T12:24:56;21.10;86.00
35127;DHT22;21300;52.006;5.798;2023-05-14T12:27:23;21.10;85.50
35127;DHT22;21300;52.006;5.798;2023-05-14T12:29:57;21.20;86.00
35127;DHT22;21300;52.006;5.798;2023-05-14T12:32:24;21.20;86.20
35127;DHT22;21300;52.006;5.798;2023-05-14T12:34:50;21.20;85.50
35127;DHT22;21300;52.006;5.798;2023-05-14T12:37:15;21.30;85.10
35127;DHT22;21300;52.006;5.798;2023-05-14T12:39:42;21.30;85.40
35127;DHT22;21300;52.006;5.798;2023-05-14T12:42:08;21.30;84.40
35127;DHT22;21300;52.006;5.798;2023-05-14T12:44:33;21.30;85.00
35127;DHT22;21300;52.006;5.798;2023-05-14T12:46:59;21.40;85.50
35127;DHT22;21300;52.006;5.798;2023-05-14T12:49:25;21.40;85.70
35127;DHT22;21300;52.006;5.798;2023-05-14T12:51:50;21.40;86.00
35127;DHT22;21300;52.006;5.798;2023-05-14T12:54:16;21.40;85.90
35127;DHT22;21300;52.006;5.798;2023-05-14T12:56:41;21.40;86.00
35127;DHT22;21300;52.006;5.798;2023-05-14T12:59:07;21.50;86.10
35127;DHT22;21300;52.006;5.798;2023-05-14T13:01:33;21.50;86.00
35127;DHT22;21300;52.006;5.798;2023-05-14T13:03:59;21.50;86.10
35127;DHT22;21300;52.006;5.798;2023-05-14T13:06:24;21.50;85.70
35127;DHT22;21300;52.006;5.798;2023-05-14T13:08:50;21.50;85.60
35127;DHT22;21300;52.006;5.798;2023-05-14T13:11:15;21.60;85.50
35127;DHT22;21300;52.006;5.798;2023-05-14T13:13:41;21.60;85.40
35127;DHT22;21300;52.006;5.798;2023-05-14T13:16:07;21.60;85.30
35127;DHT22;21300;52.006;5.798;2023-05-14T13:18:32;21.60;85.00
35127;DHT22;21300;52.006;5.798;2023-05-14T13:20:58;21.70;85.00
35127;DHT22;21300;52.006;5.798;2023-05-14T13:23:24;21.70;84.90
35127;DHT22;21300;52.006;5.798;2023-05-14T13:25:49;21.70;84.80
35127;DHT22;21300;52.006;5.798;2023-05-14T13:28:15;21.70;84.70
35127;DHT22;21300;52.006;5.798;2023-05-14T13:30:40;21.70;84.40
35127;DHT22;21300;52.006;5.798;2023-05-14T13:33:06;21.70;84.10
35127;DHT22;21300;52.006;5.798;2023-05-14T13:35:32;21.70;83.90
35127;DHT22;21300;52.006;5.798;2023-05-14T13:37:58;21.80;83.90
35127;DHT22;21300;52.006;5.798;2023-05-14T13:40:24;21.80;83.70
35127;DHT22;21300;52.006;5.798;2023-05-14T13:42:49;21.80;83.40
35127;DHT22;21300;52.006;5.798;2023-05-14T13:45:15;21.80;83.20
35127;DHT22;21300;52.006;5.798;2023-05-14T13:47:41;21.80;83.10
35127;DHT22;21300;52.006;5.798;2023-05-14T13:50:07;21.80;82.90
35127;DHT22;21300;52.006;5.798;2023-05-14T13:52:32;21.90;82.80
35127;DHT22;21300;52.006;5.798;2023-05-14T13:54:58;21.90;83.00
35127;DHT22;21300;52.006;5.798;2023-05-14T13:57:23;21.90;82.60
35127;DHT22;21300;52.006;5.798;2023-05-14T13:59:49;21.90;82.30
35127;DHT22;21300;52.006;5.798;2023-05-14T14:02:14;21.90;82.10
35127;DHT22;21300;52.006;5.798;2023-05-14T14:04:40;21.90;81.90
35127;DHT22;21300;52.006;5.798;2023-05-14T14:07:06;21.90;82.00
35127;DHT22;21300;52.006;5.798;2023-05-14T14:09:31;22.00;82.10
35127;DHT22;21300;52.006;5.798;2023-05-14T14:12:04;22.00;81.60
35127;DHT22;21300;52.006;5.798;2023-05-14T14:14:30;22.00;81.30
35127;DHT22;21300;52.006;5.798;2023-05-14T14:16:55;22.00;80.90
35127;DHT22;21300;52.006;5.798;2023-05-14T14:19:21;22.00;81.00
35127;DHT22;21300;52.006;5.798;2023-05-14T14:21:47;22.00;80.90
35127;DHT22;21300;52.006;5.798;2023-05-14T14:24:12;22.10;80.90
35127;DHT22;21300;52.006;5.798;2023-05-14T14:26:38;22.10;81.50
35127;DHT22;21300;52.006;5.798;2023-05-14T14:29:03;22.10;80.30
35127;DHT22;21300;52.006;5.798;2023-05-14T14:31:29;22.10;80.40
35127;DHT22;21300;52.006;5.798;2023-05-14T14:33:55;22.20;80.30
35127;DHT22;21300;52.006;5.798;2023-05-14T14:36:20;22.10;80.10
35127;DHT22;21300;52.006;5.798;2023-05-14T14:38:46;22.20;80.10
35127;DHT22;21300;52.006;5.798;2023-05-14T14:41:11;22.20;79.90
35127;DHT22;21300;52.006;5.798;2023-05-14T14:43:38;22.20;80.10
35127;DHT22;21300;52.006;5.798;2023-05-14T14:46:04;22.20;79.70
35127;DHT22;21300;52.006;5.798;2023-05-14T14:48:34;22.20;79.10
35127;DHT22;21300;52.006;5.798;2023-05-14T14:51:04;22.30;79.00
35127;DHT22;21300;52.006;5.798;2023-05-14T14:53:31;22.20;78.90
35127;DHT22;21300;52.006;5.798;2023-05-14T14:55:57;22.20;78.60
35127;DHT22;21300;52.006;5.798;2023-05-14T14:58:23;22.20;78.60
35127;DHT22;21300;52.006;5.798;2023-05-14T15:00:51;22.30;78.30
35127;DHT22;21300;52.006;5.798;2023-05-14T15:03:18;22.30;78.30
35127;DHT22;21300;52.006;5.798;2023-05-14T15:05:44;22.30;78.40
35127;DHT22;21300;52.006;5.798;2023-05-14T15:08:10;22.30;77.90
35127;DHT22;21300;52.006;5.798;2023-05-14T15:10:36;22.30;77.80
35127;DHT22;21300;52.006;5.798;2023-05-14T15:13:03;22.30;77.40
35127;DHT22;21300;52.006;5.798;2023-05-14T15:15:29;22.30;77.30
35127;DHT22;21300;52.006;5.798;2023-05-14T15:17:56;22.30;77.20
35127;DHT22;21300;52.006;5.798;2023-05-14T15:20:22;22.30;77.20
35127;DHT22;21300;52.006;5.798;2023-05-14T15:22:47;22.30;77.00
35127;DHT22;21300;52.006;5.798;2023-05-14T15:25:17;22.30;76.90
35127;DHT22;21300;52.006;5.798;2023-05-14T15:27:42;22.30;77.00
35127;DHT22;21300;52.006;5.798;2023-05-14T15:30:09;22.30;77.10
35127;DHT22;21300;52.006;5.798;2023-05-14T15:32:34;22.30;76.50